LIPL

Ghedi Airport

Ghedi, Italy
TAF LIPL 182000Z 1821/1906 VRB02KT CAVOK
Issued Valid From Valid To
Jul-18 @ 20:00 UTC
(2 hours ago)
Jul-18 @ 21:00 UTC
(an hour ago)
Jul-19 @ 06:00 UTC
(in 8 hours)
Jul-18 @ 21:00 to Jul-19 @ 06:00
TAF LIPL 182000Z 1821/1906 VRB02KT CAVOK
Wind Visibility Clouds Conditions
Variable at 2 knots 10,000+ meters
  • No significant clouds
TAF LIPL 182000Z 1821/1906 VRB02KT CAVOK
Issued Jul-18 @ 20:00 UTC
(2 hours ago)
Valid From Jul-18 @ 21:00 UTC
(an hour ago)
Valid To Jul-19 @ 06:00 UTC
(in 8 hours)
Jul-18 @ 21:00 - Jul-19 @ 06:00
Wind Visibility
Variable at 2 knots 10,000+ meters
Clouds
  • No significant clouds
Conditions